sensor_id;sensor_type;location;lat;lon;timestamp;P1;durP1;ratioP1;P2;durP2;ratioP2
27899;SDS011;15243;50.726;7.080;2023-08-08T00:00:36;5.32;;;1.80;;
27899;SDS011;15243;50.726;7.080;2023-08-08T00:03:03;3.72;;;1.77;;
27899;SDS011;15243;50.726;7.080;2023-08-08T00:05:31;3.55;;;1.83;;
27899;SDS011;15243;50.726;7.080;2023-08-08T00:07:58;2.65;;;1.52;;
27899;SDS011;15243;50.726;7.080;2023-08-08T00:10:24;5.32;;;1.52;;
27899;SDS011;15243;50.726;7.080;2023-08-08T00:12:51;6.22;;;1.90;;
27899;SDS011;15243;50.726;7.080;2023-08-08T00:15:18;3.25;;;2.45;;
27899;SDS011;15243;50.726;7.080;2023-08-08T00:17:46;2.53;;;1.77;;
27899;SDS011;15243;50.726;7.080;2023-08-08T00:20:13;4.13;;;1.60;;
27899;SDS011;15243;50.726;7.080;2023-08-08T00:22:40;4.88;;;1.80;;
27899;SDS011;15243;50.726;7.080;2023-08-08T00:25:07;3.00;;;1.67;;
27899;SDS011;15243;50.726;7.080;2023-08-08T00:27:35;4.28;;;2.20;;
27899;SDS011;15243;50.726;7.080;2023-08-08T00:30:08;9.70;;;1.95;;
27899;SDS011;15243;50.726;7.080;2023-08-08T00:32:36;4.60;;;1.75;;
27899;SDS011;15243;50.726;7.080;2023-08-08T00:35:03;5.95;;;1.92;;
27899;SDS011;15243;50.726;7.080;2023-08-08T00:37:31;4.03;;;1.70;;
27899;SDS011;15243;50.726;7.080;2023-08-08T00:39:58;4.75;;;2.42;;
27899;SDS011;15243;50.726;7.080;2023-08-08T00:42:25;2.70;;;1.95;;
27899;SDS011;15243;50.726;7.080;2023-08-08T00:44:52;4.18;;;2.05;;
27899;SDS011;15243;50.726;7.080;2023-08-08T00:47:19;3.92;;;2.03;;
27899;SDS011;15243;50.726;7.080;2023-08-08T00:49:46;6.25;;;2.25;;
27899;SDS011;15243;50.726;7.080;2023-08-08T00:52:15;4.25;;;2.10;;
27899;SDS011;15243;50.726;7.080;2023-08-08T00:54:42;3.47;;;1.92;;
27899;SDS011;15243;50.726;7.080;2023-08-08T00:57:09;2.75;;;1.90;;
27899;SDS011;15243;50.726;7.080;2023-08-08T00:59:36;5.45;;;2.33;;
27899;SDS011;15243;50.726;7.080;2023-08-08T01:02:03;5.75;;;2.45;;
27899;SDS011;15243;50.726;7.080;2023-08-08T01:04:31;3.70;;;1.90;;
27899;SDS011;15243;50.726;7.080;2023-08-08T01:07:01;5.05;;;1.95;;
27899;SDS011;15243;50.726;7.080;2023-08-08T01:09:55;5.32;;;1.88;;
27899;SDS011;15243;50.726;7.080;2023-08-08T01:12:48;3.35;;;2.17;;
27899;SDS011;15243;50.726;7.080;2023-08-08T01:15:21;3.67;;;1.83;;
27899;SDS011;15243;50.726;7.080;2023-08-08T01:17:49;4.93;;;1.88;;
27899;SDS011;15243;50.726;7.080;2023-08-08T01:20:17;7.38;;;2.13;;
27899;SDS011;15243;50.726;7.080;2023-08-08T01:25:50;2.92;;;1.95;;
27899;SDS011;15243;50.726;7.080;2023-08-08T01:28:21;3.45;;;2.00;;
27899;SDS011;15243;50.726;7.080;2023-08-08T01:30:49;5.03;;;2.40;;
27899;SDS011;15243;50.726;7.080;2023-08-08T01:33:17;8.52;;;2.20;;
27899;SDS011;15243;50.726;7.080;2023-08-08T01:35:46;6.05;;;2.45;;
27899;SDS011;15243;50.726;7.080;2023-08-08T01:38:19;3.33;;;2.25;;
27899;SDS011;15243;50.726;7.080;2023-08-08T01:40:50;4.60;;;2.72;;
27899;SDS011;15243;50.726;7.080;2023-08-08T01:43:17;9.32;;;2.60;;
27899;SDS011;15243;50.726;7.080;2023-08-08T01:45:45;5.03;;;2.17;;
27899;SDS011;15243;50.726;7.080;2023-08-08T01:48:13;3.35;;;2.05;;
27899;SDS011;15243;50.726;7.080;2023-08-08T01:50:40;5.38;;;2.67;;
27899;SDS011;15243;50.726;7.080;2023-08-08T01:53:08;4.57;;;2.30;;
27899;SDS011;15243;50.726;7.080;2023-08-08T01:55:35;3.58;;;2.03;;
27899;SDS011;15243;50.726;7.080;2023-08-08T01:58:02;5.32;;;2.00;;
27899;SDS011;15243;50.726;7.080;2023-08-08T02:00:30;9.00;;;2.58;;
27899;SDS011;15243;50.726;7.080;2023-08-08T02:02:57;4.95;;;2.08;;
27899;SDS011;15243;50.726;7.080;2023-08-08T02:05:25;5.75;;;2.10;;
27899;SDS011;15243;50.726;7.080;2023-08-08T02:07:52;6.25;;;2.17;;
27899;SDS011;15243;50.726;7.080;2023-08-08T02:10:19;5.22;;;2.53;;
27899;SDS011;15243;50.726;7.080;2023-08-08T02:12:46;4.18;;;1.90;;
27899;SDS011;15243;50.726;7.080;2023-08-08T02:15:12;4.38;;;2.38;;
27899;SDS011;15243;50.726;7.080;2023-08-08T02:17:39;4.28;;;2.63;;
27899;SDS011;15243;50.726;7.080;2023-08-08T02:20:06;4.63;;;2.42;;
27899;SDS011;15243;50.726;7.080;2023-08-08T02:22:34;3.00;;;1.92;;
27899;SDS011;15243;50.726;7.080;2023-08-08T02:25:01;4.25;;;2.17;;
27899;SDS011;15243;50.726;7.080;2023-08-08T02:27:28;4.63;;;2.10;;
27899;SDS011;15243;50.726;7.080;2023-08-08T02:29:55;3.95;;;2.08;;
27899;SDS011;15243;50.726;7.080;2023-08-08T02:32:23;4.22;;;2.33;;
27899;SDS011;15243;50.726;7.080;2023-08-08T02:34:51;6.40;;;2.70;;
27899;SDS011;15243;50.726;7.080;2023-08-08T02:37:17;4.13;;;2.17;;
27899;SDS011;15243;50.726;7.080;2023-08-08T02:39:44;5.38;;;2.10;;
27899;SDS011;15243;50.726;7.080;2023-08-08T02:42:11;5.53;;;2.10;;
27899;SDS011;15243;50.726;7.080;2023-08-08T02:44:39;5.38;;;2.85;;
27899;SDS011;15243;50.726;7.080;2023-08-08T02:47:05;5.57;;;2.17;;
27899;SDS011;15243;50.726;7.080;2023-08-08T02:49:32;7.45;;;2.28;;
27899;SDS011;15243;50.726;7.080;2023-08-08T02:52:00;4.45;;;1.92;;
27899;SDS011;15243;50.726;7.080;2023-08-08T02:54:28;5.03;;;2.58;;
27899;SDS011;15243;50.726;7.080;2023-08-08T02:56:55;6.13;;;2.67;;
27899;SDS011;15243;50.726;7.080;2023-08-08T02:59:21;5.20;;;2.10;;
27899;SDS011;15243;50.726;7.080;2023-08-08T03:01:48;3.83;;;2.28;;
27899;SDS011;15243;50.726;7.080;2023-08-08T03:04:16;4.40;;;2.17;;
27899;SDS011;15243;50.726;7.080;2023-08-08T03:06:43;3.30;;;2.03;;
27899;SDS011;15243;50.726;7.080;2023-08-08T03:09:10;4.85;;;2.55;;
27899;SDS011;15243;50.726;7.080;2023-08-08T03:11:37;2.70;;;1.95;;
27899;SDS011;15243;50.726;7.080;2023-08-08T03:14:07;5.68;;;2.05;;
27899;SDS011;15243;50.726;7.080;2023-08-08T03:16:36;5.10;;;1.85;;
27899;SDS011;15243;50.726;7.080;2023-08-08T03:19:03;3.97;;;2.03;;
27899;SDS011;15243;50.726;7.080;2023-08-08T03:21:30;6.20;;;2.30;;
27899;SDS011;15243;50.726;7.080;2023-08-08T03:23:57;5.97;;;2.17;;
27899;SDS011;15243;50.726;7.080;2023-08-08T03:26:26;5.25;;;2.20;;
27899;SDS011;15243;50.726;7.080;2023-08-08T03:28:53;3.30;;;1.55;;
27899;SDS011;15243;50.726;7.080;2023-08-08T03:31:20;3.97;;;1.80;;
27899;SDS011;15243;50.726;7.080;2023-08-08T03:33:48;8.23;;;2.25;;
27899;SDS011;15243;50.726;7.080;2023-08-08T03:36:15;3.60;;;1.85;;
27899;SDS011;15243;50.726;7.080;2023-08-08T03:38:42;3.53;;;1.90;;
27899;SDS011;15243;50.726;7.080;2023-08-08T03:41:12;4.85;;;1.95;;
27899;SDS011;15243;50.726;7.080;2023-08-08T03:43:40;9.00;;;2.20;;
27899;SDS011;15243;50.726;7.080;2023-08-08T03:46:07;7.88;;;2.08;;
27899;SDS011;15243;50.726;7.080;2023-08-08T03:48:34;3.40;;;1.67;;
27899;SDS011;15243;50.726;7.080;2023-08-08T03:51:01;6.30;;;2.17;;
27899;SDS011;15243;50.726;7.080;2023-08-08T03:53:29;5.22;;;1.85;;
27899;SDS011;15243;50.726;7.080;2023-08-08T03:55:56;9.35;;;2.08;;
27899;SDS011;15243;50.726;7.080;2023-08-08T03:58:23;3.78;;;1.52;;
27899;SDS011;15243;50.726;7.080;2023-08-08T04:00:51;4.78;;;1.80;;
27899;SDS011;15243;50.726;7.080;2023-08-08T04:03:18;4.05;;;1.58;;
27899;SDS011;15243;50.726;7.080;2023-08-08T04:05:45;5.18;;;1.85;;
27899;SDS011;15243;50.726;7.080;2023-08-08T04:08:13;7.00;;;2.00;;
27899;SDS011;15243;50.726;7.080;2023-08-08T04:10:41;4.90;;;2.05;;
27899;SDS011;15243;50.726;7.080;2023-08-08T04:13:09;5.60;;;1.40;;
27899;SDS011;15243;50.726;7.080;2023-08-08T04:15:37;5.28;;;1.80;;
27899;SDS011;15243;50.726;7.080;2023-08-08T04:18:04;3.95;;;1.67;;
27899;SDS011;15243;50.726;7.080;2023-08-08T04:20:33;4.85;;;1.80;;
27899;SDS011;15243;50.726;7.080;2023-08-08T04:23:00;3.63;;;1.67;;
27899;SDS011;15243;50.726;7.080;2023-08-08T04:25:28;9.50;;;2.28;;
27899;SDS011;15243;50.726;7.080;2023-08-08T04:27:55;3.30;;;1.52;;
27899;SDS011;15243;50.726;7.080;2023-08-08T04:30:22;4.50;;;1.77;;
27899;SDS011;15243;50.726;7.080;2023-08-08T04:32:50;3.90;;;1.52;;
27899;SDS011;15243;50.726;7.080;2023-08-08T04:35:17;4.30;;;2.40;;
27899;SDS011;15243;50.726;7.080;2023-08-08T04:37:44;4.95;;;1.60;;
27899;SDS011;15243;50.726;7.080;2023-08-08T04:40:11;5.97;;;2.00;;
27899;SDS011;15243;50.726;7.080;2023-08-08T04:42:39;8.77;;;2.10;;
27899;SDS011;15243;50.726;7.080;2023-08-08T04:45:07;3.10;;;1.88;;
27899;SDS011;15243;50.726;7.080;2023-08-08T04:47:35;6.13;;;1.98;;
27899;SDS011;15243;50.726;7.080;2023-08-08T04:50:02;5.88;;;2.40;;
27899;SDS011;15243;50.726;7.080;2023-08-08T04:52:29;4.22;;;1.83;;
27899;SDS011;15243;50.726;7.080;2023-08-08T04:54:56;2.72;;;1.70;;
27899;SDS011;15243;50.726;7.080;2023-08-08T04:57:23;6.75;;;2.30;;
27899;SDS011;15243;50.726;7.080;2023-08-08T04:59:50;6.57;;;2.65;;
27899;SDS011;15243;50.726;7.080;2023-08-08T05:02:17;5.53;;;1.90;;
27899;SDS011;15243;50.726;7.080;2023-08-08T05:04:44;4.03;;;1.75;;
27899;SDS011;15243;50.726;7.080;2023-08-08T05:07:11;5.03;;;1.90;;
27899;SDS011;15243;50.726;7.080;2023-08-08T05:09:38;6.38;;;1.70;;
27899;SDS011;15243;50.726;7.080;2023-08-08T05:12:05;7.20;;;2.55;;
27899;SDS011;15243;50.726;7.080;2023-08-08T05:14:32;5.03;;;1.90;;
27899;SDS011;15243;50.726;7.080;2023-08-08T05:16:59;5.63;;;1.90;;
27899;SDS011;15243;50.726;7.080;2023-08-08T05:19:28;8.13;;;1.90;;
27899;SDS011;15243;50.726;7.080;2023-08-08T05:21:55;5.47;;;2.30;;
27899;SDS011;15243;50.726;7.080;2023-08-08T05:24:23;6.55;;;2.40;;
27899;SDS011;15243;50.726;7.080;2023-08-08T05:26:50;5.13;;;2.10;;
27899;SDS011;15243;50.726;7.080;2023-08-08T05:29:17;6.68;;;2.33;;
27899;SDS011;15243;50.726;7.080;2023-08-08T05:31:44;7.22;;;2.50;;
27899;SDS011;15243;50.726;7.080;2023-08-08T05:34:12;6.43;;;2.10;;
27899;SDS011;15243;50.726;7.080;2023-08-08T05:36:39;5.75;;;2.53;;
27899;SDS011;15243;50.726;7.080;2023-08-08T05:39:07;4.68;;;2.13;;
27899;SDS011;15243;50.726;7.080;2023-08-08T05:41:34;7.05;;;2.25;;
27899;SDS011;15243;50.726;7.080;2023-08-08T05:44:01;5.43;;;2.47;;
27899;SDS011;15243;50.726;7.080;2023-08-08T05:46:28;8.63;;;2.38;;
27899;SDS011;15243;50.726;7.080;2023-08-08T05:48:55;10.18;;;2.30;;
27899;SDS011;15243;50.726;7.080;2023-08-08T05:51:22;4.55;;;2.35;;
27899;SDS011;15243;50.726;7.080;2023-08-08T05:53:49;4.20;;;2.40;;
27899;SDS011;15243;50.726;7.080;2023-08-08T05:56:16;7.80;;;2.40;;
27899;SDS011;15243;50.726;7.080;2023-08-08T05:58:43;7.65;;;2.78;;
27899;SDS011;15243;50.726;7.080;2023-08-08T06:01:10;9.35;;;2.88;;
27899;SDS011;15243;50.726;7.080;2023-08-08T06:03:38;4.70;;;2.53;;
27899;SDS011;15243;50.726;7.080;2023-08-08T06:06:05;7.32;;;2.67;;
27899;SDS011;15243;50.726;7.080;2023-08-08T06:08:32;6.53;;;2.80;;
27899;SDS011;15243;50.726;7.080;2023-08-08T06:11:00;9.95;;;3.63;;
27899;SDS011;15243;50.726;7.080;2023-08-08T06:13:27;10.05;;;3.08;;
27899;SDS011;15243;50.726;7.080;2023-08-08T06:15:55;11.40;;;3.10;;
27899;SDS011;15243;50.726;7.080;2023-08-08T06:18:23;9.80;;;3.20;;
27899;SDS011;15243;50.726;7.080;2023-08-08T06:20:50;6.30;;;2.83;;
27899;SDS011;15243;50.726;7.080;2023-08-08T06:23:17;8.60;;;3.30;;
27899;SDS011;15243;50.726;7.080;2023-08-08T06:25:44;8.30;;;2.90;;
27899;SDS011;15243;50.726;7.080;2023-08-08T06:28:12;9.85;;;3.55;;
27899;SDS011;15243;50.726;7.080;2023-08-08T06:30:39;7.18;;;2.88;;
27899;SDS011;15243;50.726;7.080;2023-08-08T06:33:06;8.00;;;3.47;;
27899;SDS011;15243;50.726;7.080;2023-08-08T06:35:33;6.47;;;2.55;;
27899;SDS011;15243;50.726;7.080;2023-08-08T06:38:00;11.30;;;3.55;;
27899;SDS011;15243;50.726;7.080;2023-08-08T06:40:27;8.52;;;3.40;;
27899;SDS011;15243;50.726;7.080;2023-08-08T06:42:54;10.20;;;3.35;;
27899;SDS011;15243;50.726;7.080;2023-08-08T06:45:21;9.18;;;3.33;;
27899;SDS011;15243;50.726;7.080;2023-08-08T06:47:48;11.68;;;3.75;;
27899;SDS011;15243;50.726;7.080;2023-08-08T06:50:16;11.73;;;3.47;;
27899;SDS011;15243;50.726;7.080;2023-08-08T06:52:46;10.70;;;3.08;;
27899;SDS011;15243;50.726;7.080;2023-08-08T06:55:12;15.15;;;3.83;;
27899;SDS011;15243;50.726;7.080;2023-08-08T06:57:40;5.38;;;3.22;;
27899;SDS011;15243;50.726;7.080;2023-08-08T07:00:07;6.82;;;3.05;;
27899;SDS011;15243;50.726;7.080;2023-08-08T07:02:34;10.20;;;3.28;;
27899;SDS011;15243;50.726;7.080;2023-08-08T07:05:03;8.30;;;2.90;;
27899;SDS011;15243;50.726;7.080;2023-08-08T07:07:34;9.70;;;2.97;;
27899;SDS011;15243;50.726;7.080;2023-08-08T07:10:01;7.13;;;2.83;;
27899;SDS011;15243;50.726;7.080;2023-08-08T07:12:33;11.10;;;2.63;;
27899;SDS011;15243;50.726;7.080;2023-08-08T07:15:00;6.90;;;2.45;;
27899;SDS011;15243;50.726;7.080;2023-08-08T07:17:27;5.80;;;2.50;;
27899;SDS011;15243;50.726;7.080;2023-08-08T07:19:54;4.22;;;2.40;;
27899;SDS011;15243;50.726;7.080;2023-08-08T07:22:23;9.35;;;2.80;;
27899;SDS011;15243;50.726;7.080;2023-08-08T07:24:50;9.55;;;2.10;;
27899;SDS011;15243;50.726;7.080;2023-08-08T07:27:17;11.93;;;2.42;;
27899;SDS011;15243;50.726;7.080;2023-08-08T07:29:44;6.05;;;2.25;;
27899;SDS011;15243;50.726;7.080;2023-08-08T07:32:14;7.55;;;2.60;;
27899;SDS011;15243;50.726;7.080;2023-08-08T07:34:41;7.63;;;2.08;;
27899;SDS011;15243;50.726;7.080;2023-08-08T07:37:08;8.43;;;2.15;;
27899;SDS011;15243;50.726;7.080;2023-08-08T07:39:35;4.53;;;1.80;;
27899;SDS011;15243;50.726;7.080;2023-08-08T07:42:03;5.68;;;2.20;;
27899;SDS011;15243;50.726;7.080;2023-08-08T07:44:30;5.03;;;2.15;;
27899;SDS011;15243;50.726;7.080;2023-08-08T07:46:58;4.45;;;2.05;;
27899;SDS011;15243;50.726;7.080;2023-08-08T07:49:26;3.38;;;1.60;;
27899;SDS011;15243;50.726;7.080;2023-08-08T07:51:52;6.32;;;2.28;;
27899;SDS011;15243;50.726;7.080;2023-08-08T07:54:20;7.05;;;2.17;;
27899;SDS011;15243;50.726;7.080;2023-08-08T07:56:47;6.75;;;2.08;;
27899;SDS011;15243;50.726;7.080;2023-08-08T07:59:14;4.65;;;1.88;;
27899;SDS011;15243;50.726;7.080;2023-08-08T08:01:42;7.97;;;2.15;;
27899;SDS011;15243;50.726;7.080;2023-08-08T08:04:09;11.15;;;2.03;;
27899;SDS011;15243;50.726;7.080;2023-08-08T08:06:37;4.20;;;1.55;;
27899;SDS011;15243;50.726;7.080;2023-08-08T08:09:04;6.10;;;1.90;;
27899;SDS011;15243;50.726;7.080;2023-08-08T08:11:31;9.32;;;2.08;;
27899;SDS011;15243;50.726;7.080;2023-08-08T08:13:58;6.15;;;1.92;;
27899;SDS011;15243;50.726;7.080;2023-08-08T08:16:25;7.35;;;2.05;;
27899;SDS011;15243;50.726;7.080;2023-08-08T08:18:52;6.32;;;1.90;;
27899;SDS011;15243;50.726;7.080;2023-08-08T08:21:22;4.63;;;1.83;;
27899;SDS011;15243;50.726;7.080;2023-08-08T08:23:48;3.75;;;2.28;;
27899;SDS011;15243;50.726;7.080;2023-08-08T08:26:15;8.30;;;2.35;;
27899;SDS011;15243;50.726;7.080;2023-08-08T08:28:42;8.38;;;2.60;;
27899;SDS011;15243;50.726;7.080;2023-08-08T08:31:09;4.60;;;2.03;;
27899;SDS011;15243;50.726;7.080;2023-08-08T08:33:36;5.90;;;2.38;;
27899;SDS011;15243;50.726;7.080;2023-08-08T08:36:04;7.32;;;2.53;;
27899;SDS011;15243;50.726;7.080;2023-08-08T08:38:31;6.35;;;2.30;;
27899;SDS011;15243;50.726;7.080;2023-08-08T08:40:58;6.60;;;2.60;;
27899;SDS011;15243;50.726;7.080;2023-08-08T08:43:25;7.13;;;2.88;;
27899;SDS011;15243;50.726;7.080;2023-08-08T08:45:54;5.45;;;2.47;;
27899;SDS011;15243;50.726;7.080;2023-08-08T08:48:21;9.40;;;3.20;;
27899;SDS011;15243;50.726;7.080;2023-08-08T08:50:50;10.10;;;2.92;;
27899;SDS011;15243;50.726;7.080;2023-08-08T08:53:18;7.60;;;2.85;;
27899;SDS011;15243;50.726;7.080;2023-08-08T08:55:46;9.18;;;2.65;;
27899;SDS011;15243;50.726;7.080;2023-08-08T08:58:15;5.97;;;2.72;;
27899;SDS011;15243;50.726;7.080;2023-08-08T09:00:45;8.23;;;2.67;;
27899;SDS011;15243;50.726;7.080;2023-08-08T09:03:19;5.38;;;2.40;;
27899;SDS011;15243;50.726;7.080;2023-08-08T09:05:46;6.57;;;2.75;;
27899;SDS011;15243;50.726;7.080;2023-08-08T09:08:14;7.07;;;2.75;;
27899;SDS011;15243;50.726;7.080;2023-08-08T09:10:42;5.00;;;2.30;;
27899;SDS011;15243;50.726;7.080;2023-08-08T09:13:09;7.00;;;2.53;;
27899;SDS011;15243;50.726;7.080;2023-08-08T09:15:36;7.88;;;2.45;;
27899;SDS011;15243;50.726;7.080;2023-08-08T09:18:05;7.95;;;2.47;;
27899;SDS011;15243;50.726;7.080;2023-08-08T09:20:34;6.72;;;2.88;;
27899;SDS011;15243;50.726;7.080;2023-08-08T09:23:01;6.82;;;2.50;;
27899;SDS011;15243;50.726;7.080;2023-08-08T09:25:29;5.68;;;2.40;;
27899;SDS011;15243;50.726;7.080;2023-08-08T09:27:57;5.70;;;2.05;;
27899;SDS011;15243;50.726;7.080;2023-08-08T09:30:24;6.88;;;1.73;;
27899;SDS011;15243;50.726;7.080;2023-08-08T09:32:52;4.97;;;1.90;;
27899;SDS011;15243;50.726;7.080;2023-08-08T09:35:22;7.38;;;1.83;;
27899;SDS011;15243;50.726;7.080;2023-08-08T09:37:51;5.32;;;2.00;;
27899;SDS011;15243;50.726;7.080;2023-08-08T09:40:20;4.32;;;1.60;;
27899;SDS011;15243;50.726;7.080;2023-08-08T09:42:50;5.85;;;1.70;;
27899;SDS011;15243;50.726;7.080;2023-08-08T09:45:19;5.13;;;1.98;;
27899;SDS011;15243;50.726;7.080;2023-08-08T09:47:48;5.35;;;2.08;;
27899;SDS011;15243;50.726;7.080;2023-08-08T09:50:16;9.43;;;2.45;;
27899;SDS011;15243;50.726;7.080;2023-08-08T09:52:45;4.25;;;1.60;;
27899;SDS011;15243;50.726;7.080;2023-08-08T09:55:14;4.82;;;1.58;;
27899;SDS011;15243;50.726;7.080;2023-08-08T09:57:42;5.10;;;1.65;;
27899;SDS011;15243;50.726;7.080;2023-08-08T10:00:10;5.05;;;1.88;;
27899;SDS011;15243;50.726;7.080;2023-08-08T10:02:43;5.00;;;1.85;;
27899;SDS011;15243;50.726;7.080;2023-08-08T10:05:13;3.33;;;1.50;;
27899;SDS011;15243;50.726;7.080;2023-08-08T10:07:41;3.75;;;1.48;;
27899;SDS011;15243;50.726;7.080;2023-08-08T10:10:10;5.53;;;1.80;;
27899;SDS011;15243;50.726;7.080;2023-08-08T10:12:38;4.78;;;1.52;;
27899;SDS011;15243;50.726;7.080;2023-08-08T10:15:09;6.75;;;2.05;;
27899;SDS011;15243;50.726;7.080;2023-08-08T10:17:37;6.18;;;1.55;;
27899;SDS011;15243;50.726;7.080;2023-08-08T10:20:06;3.97;;;1.50;;
27899;SDS011;15243;50.726;7.080;2023-08-08T10:22:42;5.53;;;1.80;;
27899;SDS011;15243;50.726;7.080;2023-08-08T10:25:19;3.03;;;1.58;;
27899;SDS011;15243;50.726;7.080;2023-08-08T10:28:00;5.20;;;1.77;;
27899;SDS011;15243;50.726;7.080;2023-08-08T10:30:56;3.08;;;1.50;;
27899;SDS011;15243;50.726;7.080;2023-08-08T10:33:25;4.72;;;1.58;;
27899;SDS011;15243;50.726;7.080;2023-08-08T10:38:27;5.43;;;2.42;;
27899;SDS011;15243;50.726;7.080;2023-08-08T10:41:14;4.32;;;1.85;;
27899;SDS011;15243;50.726;7.080;2023-08-08T10:43:56;5.13;;;1.67;;
27899;SDS011;15243;50.726;7.080;2023-08-08T10:46:25;5.85;;;1.70;;
27899;SDS011;15243;50.726;7.080;2023-08-08T10:48:58;5.32;;;1.67;;
27899;SDS011;15243;50.726;7.080;2023-08-08T10:51:36;6.75;;;1.73;;
27899;SDS011;15243;50.726;7.080;2023-08-08T10:54:12;5.82;;;1.50;;
27899;SDS011;15243;50.726;7.080;2023-08-08T10:56:39;5.53;;;1.55;;
27899;SDS011;15243;50.726;7.080;2023-08-08T10:59:21;6.03;;;1.73;;
27899;SDS011;15243;50.726;7.080;2023-08-08T11:01:53;3.58;;;1.33;;
27899;SDS011;15243;50.726;7.080;2023-08-08T11:04:23;6.28;;;1.90;;
27899;SDS011;15243;50.726;7.080;2023-08-08T11:06:53;4.95;;;1.58;;
27899;SDS011;15243;50.726;7.080;2023-08-08T11:09:21;3.22;;;1.50;;
27899;SDS011;15243;50.726;7.080;2023-08-08T11:11:48;5.57;;;1.50;;
27899;SDS011;15243;50.726;7.080;2023-08-08T11:14:16;4.07;;;1.52;;
27899;SDS011;15243;50.726;7.080;2023-08-08T11:16:48;5.95;;;1.83;;
27899;SDS011;15243;50.726;7.080;2023-08-08T11:19:18;9.63;;;2.33;;
27899;SDS011;15243;50.726;7.080;2023-08-08T11:21:46;7.28;;;1.80;;
27899;SDS011;15243;50.726;7.080;2023-08-08T11:24:14;5.75;;;1.58;;
27899;SDS011;15243;50.726;7.080;2023-08-08T11:26:42;5.85;;;1.92;;
27899;SDS011;15243;50.726;7.080;2023-08-08T11:29:12;6.78;;;1.98;;
27899;SDS011;15243;50.726;7.080;2023-08-08T11:31:39;4.95;;;1.70;;
27899;SDS011;15243;50.726;7.080;2023-08-08T11:34:07;6.93;;;1.88;;
27899;SDS011;15243;50.726;7.080;2023-08-08T11:36:36;6.13;;;1.60;;
27899;SDS011;15243;50.726;7.080;2023-08-08T11:39:04;3.83;;;2.00;;
27899;SDS011;15243;50.726;7.080;2023-08-08T11:44:04;12.18;;;1.52;;
27899;SDS011;15243;50.726;7.080;2023-08-08T11:46:31;4.75;;;1.88;;
27899;SDS011;15243;50.726;7.080;2023-08-08T11:49:05;5.50;;;1.85;;
27899;SDS011;15243;50.726;7.080;2023-08-08T11:51:33;3.42;;;1.25;;
27899;SDS011;15243;50.726;7.080;2023-08-08T11:54:01;5.07;;;1.88;;
27899;SDS011;15243;50.726;7.080;2023-08-08T11:56:32;2.38;;;1.35;;
27899;SDS011;15243;50.726;7.080;2023-08-08T11:59:01;4.72;;;1.77;;
27899;SDS011;15243;50.726;7.080;2023-08-08T12:01:30;6.05;;;1.92;;
27899;SDS011;15243;50.726;7.080;2023-08-08T12:03:58;4.45;;;1.73;;
27899;SDS011;15243;50.726;7.080;2023-08-08T12:06:31;6.55;;;1.65;;
27899;SDS011;15243;50.726;7.080;2023-08-08T12:08:57;4.60;;;1.50;;
27899;SDS011;15243;50.726;7.080;2023-08-08T12:11:25;4.45;;;1.60;;
27899;SDS011;15243;50.726;7.080;2023-08-08T12:13:58;5.93;;;2.13;;
27899;SDS011;15243;50.726;7.080;2023-08-08T12:19:02;4.97;;;1.60;;
27899;SDS011;15243;50.726;7.080;2023-08-08T12:21:33;8.07;;;1.92;;
27899;SDS011;15243;50.726;7.080;2023-08-08T12:24:01;5.00;;;1.45;;
27899;SDS011;15243;50.726;7.080;2023-08-08T12:26:29;8.05;;;2.10;;
27899;SDS011;15243;50.726;7.080;2023-08-08T12:28:56;6.72;;;2.10;;
27899;SDS011;15243;50.726;7.080;2023-08-08T12:31:23;4.15;;;1.80;;
27899;SDS011;15243;50.726;7.080;2023-08-08T12:33:50;5.38;;;2.00;;
27899;SDS011;15243;50.726;7.080;2023-08-08T12:36:20;8.20;;;1.88;;
27899;SDS011;15243;50.726;7.080;2023-08-08T12:38:47;6.97;;;2.22;;
27899;SDS011;15243;50.726;7.080;2023-08-08T12:41:14;6.90;;;2.50;;
27899;SDS011;15243;50.726;7.080;2023-08-08T12:43:41;7.68;;;2.28;;
27899;SDS011;15243;50.726;7.080;2023-08-08T12:46:08;5.20;;;1.73;;
27899;SDS011;15243;50.726;7.080;2023-08-08T12:48:36;5.82;;;2.05;;
27899;SDS011;15243;50.726;7.080;2023-08-08T12:51:03;6.32;;;2.03;;
27899;SDS011;15243;50.726;7.080;2023-08-08T12:53:33;5.50;;;1.85;;
27899;SDS011;15243;50.726;7.080;2023-08-08T12:56:03;5.72;;;2.03;;
27899;SDS011;15243;50.726;7.080;2023-08-08T12:58:30;4.65;;;1.80;;
27899;SDS011;15243;50.726;7.080;2023-08-08T13:00:57;6.13;;;2.30;;
27899;SDS011;15243;50.726;7.080;2023-08-08T13:03:24;7.55;;;1.92;;
27899;SDS011;15243;50.726;7.080;2023-08-08T13:05:51;5.40;;;1.83;;
27899;SDS011;15243;50.726;7.080;2023-08-08T13:08:18;5.63;;;2.00;;
27899;SDS011;15243;50.726;7.080;2023-08-08T13:10:46;9.73;;;2.58;;
27899;SDS011;15243;50.726;7.080;2023-08-08T13:13:13;7.88;;;2.40;;
27899;SDS011;15243;50.726;7.080;2023-08-08T13:15:40;6.38;;;2.03;;
27899;SDS011;15243;50.726;7.080;2023-08-08T13:18:07;7.68;;;2.33;;
27899;SDS011;15243;50.726;7.080;2023-08-08T13:20:36;5.03;;;2.10;;
27899;SDS011;15243;50.726;7.080;2023-08-08T13:23:03;8.80;;;2.58;;
27899;SDS011;15243;50.726;7.080;2023-08-08T13:25:30;5.68;;;2.35;;
27899;SDS011;15243;50.726;7.080;2023-08-08T13:28:01;9.88;;;2.63;;
27899;SDS011;15243;50.726;7.080;2023-08-08T13:30:29;8.30;;;2.90;;
27899;SDS011;15243;50.726;7.080;2023-08-08T13:32:56;7.75;;;2.72;;
27899;SDS011;15243;50.726;7.080;2023-08-08T13:35:26;7.43;;;2.15;;
27899;SDS011;15243;50.726;7.080;2023-08-08T13:37:53;8.55;;;2.40;;
27899;SDS011;15243;50.726;7.080;2023-08-08T13:40:21;11.68;;;2.53;;
27899;SDS011;15243;50.726;7.080;2023-08-08T13:42:48;10.82;;;2.08;;
27899;SDS011;15243;50.726;7.080;2023-08-08T13:45:17;6.53;;;2.55;;
27899;SDS011;15243;50.726;7.080;2023-08-08T13:47:46;7.20;;;2.28;;
27899;SDS011;15243;50.726;7.080;2023-08-08T13:50:13;7.97;;;2.35;;
27899;SDS011;15243;50.726;7.080;2023-08-08T13:52:41;7.07;;;2.40;;
27899;SDS011;15243;50.726;7.080;2023-08-08T13:55:08;8.88;;;2.65;;
27899;SDS011;15243;50.726;7.080;2023-08-08T13:57:35;6.75;;;1.90;;
27899;SDS011;15243;50.726;7.080;2023-08-08T14:00:02;10.50;;;2.17;;
27899;SDS011;15243;50.726;7.080;2023-08-08T14:02:30;4.97;;;1.85;;
27899;SDS011;15243;50.726;7.080;2023-08-08T14:04:57;3.80;;;1.67;;
27899;SDS011;15243;50.726;7.080;2023-08-08T14:07:25;7.70;;;2.03;;
27899;SDS011;15243;50.726;7.080;2023-08-08T14:09:52;8.30;;;1.75;;
27899;SDS011;15243;50.726;7.080;2023-08-08T14:12:19;4.80;;;1.50;;
27899;SDS011;15243;50.726;7.080;2023-08-08T14:14:46;4.88;;;1.40;;
27899;SDS011;15243;50.726;7.080;2023-08-08T14:17:13;4.07;;;1.33;;
27899;SDS011;15243;50.726;7.080;2023-08-08T14:19:40;4.78;;;1.30;;
27899;SDS011;15243;50.726;7.080;2023-08-08T14:22:07;8.38;;;2.00;;
27899;SDS011;15243;50.726;7.080;2023-08-08T14:24:34;4.85;;;1.40;;
27899;SDS011;15243;50.726;7.080;2023-08-08T14:27:01;3.63;;;1.30;;
27899;SDS011;15243;50.726;7.080;2023-08-08T14:29:28;6.00;;;1.40;;
27899;SDS011;15243;50.726;7.080;2023-08-08T14:31:55;3.58;;;1.20;;
27899;SDS011;15243;50.726;7.080;2023-08-08T14:34:32;5.68;;;1.80;;
27899;SDS011;15243;50.726;7.080;2023-08-08T14:37:00;5.30;;;1.60;;
27899;SDS011;15243;50.726;7.080;2023-08-08T14:39:28;7.03;;;1.67;;
27899;SDS011;15243;50.726;7.080;2023-08-08T14:41:56;5.45;;;1.42;;
27899;SDS011;15243;50.726;7.080;2023-08-08T14:44:23;5.43;;;1.50;;
27899;SDS011;15243;50.726;7.080;2023-08-08T14:46:51;6.97;;;1.58;;
27899;SDS011;15243;50.726;7.080;2023-08-08T14:49:18;5.53;;;1.40;;
27899;SDS011;15243;50.726;7.080;2023-08-08T14:51:45;7.70;;;1.70;;
27899;SDS011;15243;50.726;7.080;2023-08-08T14:54:56;6.53;;;1.48;;
27899;SDS011;15243;50.726;7.080;2023-08-08T14:57:24;7.57;;;1.50;;
27899;SDS011;15243;50.726;7.080;2023-08-08T14:59:51;6.78;;;1.58;;
27899;SDS011;15243;50.726;7.080;2023-08-08T15:02:18;4.28;;;1.67;;
27899;SDS011;15243;50.726;7.080;2023-08-08T15:04:46;8.77;;;1.55;;